LDLO/LSZ METAR and TAF weather

Enter ICAO airport designator
Station Type Date Time Source
LDLO METAR 2021/07/25 18:00 UTC NOAA

LDLO 251800Z 15005KT 9999 SCT055 26/18 Q1010


Station Type Date Time Source
LDLO Decoded METAR 2021/07/25 18:00 UTC NOAA

Losinj Island, Croatia (LDLO) 44-33-57N 014-23-35E
Jul 25, 2021 - 02:00 PM EDT / 2021.07.25 1800 UTC
Wind: from the SSE (150 degrees) at 6 MPH (5 KT):0
Visibility: greater than 7 mile(s):0
Sky conditions: partly cloudy
Temperature: 78 F (26 C)
Dew Point: 64 F (18 C)
Relative Humidity: 61%
Pressure (altimeter): 29.83 in. Hg (1010 hPa)
ob: LDLO 251800Z 15005KT 9999 SCT055 26/18 Q1010
cycle: 18

Station Type Date Time Source
LDLO TAF 2021/07/25 19:12 UTC NOAA

TAF
AMD TAF
AMD LDLO 251909Z 2519/2612 CNL

Example: see airport list